Bluebell, Utah
Current Conditions -  °F | °C
As of 11:53 PM on Friday 24 Oct 2014 (Local Time) from KVEL Reporting Station
Clear Clear  
Wind Chill:   Ceiling: Unl
Heat Index:   Visibility: 10mi
Dew Point:   Wind: 5mph
Humidity: 54%   Direction: 290°WNW
Pressure: 30.25"   Gusts: NA
Location:  40.36°N, 110.22°W
Report Text: KVEL 250553Z AUTO 29004KT 10SM CLR 09/01 A3025 RMK AO2 SLP212 T00940006 10194 20083 51007
Loading
Personal Weather Stations






























Interactive Weather Map
Tropical Storm Tracking
New forecast layout! Learn more

10-Day Weather Forecast

Advertisements
Track Severe Weather on mobile